Strona główna
METAR-TAF:

METAR-TAF

Lotnisko :

Saint-Yan, Francja

Szerokość geograficzna: 46-24-45N, Długość geograficzna: 004-00-48E, wysokość: 244 m

Aktualna obserwacja pogody

Raport powstał 22 minut temu, godzina 06:30 UTC
Wiatr 3 kt od północny zachód, zmienny między zachód i północ
Temperatura 22°C
Wilgotność 73%
Ciśnienie 1022 hPa
Widzialność 10 km lub więcej
Przerywane chmury na wysokości 4900 ft
Przerywane chmury na wysokości 6800 ft

METAR: LFLN 210630Z AUTO 32003KT 280V350 9999 BKN049 BKN068 22/17 Q1022 NOSIG

czas: 08:52 (06:52 UTC)

Prognoza

Raport powstał 1 godzina i 52 minut temu, godzina 05:00 UTC
Prognoza ważna od 21 godzina 06 UTC do 21 godzina 15 UTC
Wiatr 3 kt z kierunków zmiennych
Widzialność 10 km lub więcej
Przerywane chmury na wysokości 5000 ft
Stopniowe zmiany
od 21 godzina 13 UTC do 21 godzina 15 UTC
Wiatr 5 kt od zachodnio-północny zachód
Widzialność 10 km lub więcej
Brak chmur poniżej 1500 m i brak chmur cumulonimbus

TAF: LFLN 210500Z 2106/2115 VRB03KT 9999 BKN050 BECMG 2113/2115 30005KT CAVOK

Obserwacja i prognoza pogody dla ponad 4000 lotnisk (raport METAR i TAF).

Dostępne stacje oznaczono żółtymi i czerwonymi punktami na mapie.

Najedź kursorem aby zobaczyć nazwę stacji.

Kliknij aby zobaczyć obserwacje i prognozy pogody.

Aby zmienić mapę: kliknij na zielony przycisk z czarnym krzyżykiem, aby powiększyć; na zielony przycisk z myślnikiem, aby pomniejszyć; na zielone strzałki, aby przejść do map sąsiednich.


METAR-TAF: